createdAt,value
2022-08-09T00:00:20.628Z,25.80
2022-08-09T00:02:51.854Z,25.80
2022-08-09T00:06:19.299Z,25.70
2022-08-09T00:07:56.081Z,25.80
2022-08-09T00:10:28.283Z,25.80
2022-08-09T00:12:59.259Z,25.80
2022-08-09T00:15:57.970Z,25.80
2022-08-09T00:18:09.364Z,25.80
2022-08-09T00:20:35.437Z,25.80
2022-08-09T00:23:56.286Z,25.80
2022-08-09T00:25:38.939Z,25.80
2022-08-09T00:28:11.132Z,25.80
2022-08-09T00:30:42.611Z,25.90
2022-08-09T00:33:13.898Z,25.80
2022-08-09T00:35:45.266Z,25.90
2022-08-09T00:38:17.172Z,25.90
2022-08-09T00:40:51.543Z,25.90
2022-08-09T00:44:16.063Z,25.90
2022-08-09T00:45:55.109Z,25.90
2022-08-09T00:48:27.791Z,25.90
2022-08-09T00:50:59.809Z,25.90
2022-08-09T00:53:30.659Z,26.00
2022-08-09T00:56:05.425Z,26.00
2022-08-09T00:58:35.852Z,26.00
2022-08-09T01:01:09.973Z,26.00
2022-08-09T01:03:46.244Z,26.00
2022-08-09T01:06:20.252Z,26.00
2022-08-09T01:08:53.768Z,26.00
2022-08-09T01:11:26.941Z,26.00
2022-08-09T01:14:01.654Z,26.00
2022-08-09T01:16:35.368Z,26.10
2022-08-09T01:19:16.766Z,26.10
2022-08-09T01:21:51.426Z,26.10
2022-08-09T01:24:20.050Z,26.10
2022-08-09T01:26:54.079Z,26.10
2022-08-09T01:29:28.236Z,26.10
2022-08-09T01:32:31.113Z,26.10
2022-08-09T01:34:36.529Z,26.10
2022-08-09T01:37:11.062Z,26.10
2022-08-09T01:39:45.154Z,26.10
2022-08-09T01:42:17.807Z,26.10
2022-08-09T01:44:50.218Z,26.20
2022-08-09T01:47:22.881Z,26.20
2022-08-09T01:49:55.070Z,26.20
2022-08-09T01:52:27.331Z,26.20
2022-08-09T01:55:01.860Z,26.20
2022-08-09T01:57:40.110Z,26.30
2022-08-09T02:00:34.496Z,26.30
2022-08-09T02:02:46.011Z,26.30
2022-08-09T02:05:19.219Z,26.30
2022-08-09T02:08:40.098Z,26.30
2022-08-09T02:10:29.914Z,26.40
2022-08-09T02:13:01.266Z,26.40
2022-08-09T02:15:36.224Z,26.30
2022-08-09T02:18:10.163Z,26.30
2022-08-09T02:20:41.993Z,26.30
2022-08-09T02:23:16.933Z,26.30
2022-08-09T02:25:55.595Z,26.30
2022-08-09T02:28:25.149Z,26.40
2022-08-09T02:30:59.063Z,26.30
2022-08-09T02:33:58.385Z,26.40
2022-08-09T02:36:07.364Z,26.40
2022-08-09T02:38:41.885Z,26.50
2022-08-09T02:41:16.830Z,26.50
2022-08-09T02:43:55.038Z,26.60
2022-08-09T02:46:23.065Z,26.60
2022-08-09T02:48:58.526Z,26.70
2022-08-09T02:51:37.174Z,26.70
2022-08-09T02:54:07.056Z,26.80
2022-08-09T02:56:41.873Z,26.90
2022-08-09T02:59:26.445Z,26.90
2022-08-09T03:02:06.177Z,27.00
2022-08-09T03:04:26.344Z,27.00
2022-08-09T03:06:54.819Z,27.10
2022-08-09T03:09:27.351Z,27.20
2022-08-09T03:12:10.573Z,27.30
2022-08-09T03:14:36.614Z,27.30
2022-08-09T03:17:08.357Z,27.40
2022-08-09T03:19:58.680Z,27.50
2022-08-09T03:22:24.841Z,27.50
2022-08-09T03:24:52.457Z,27.60
2022-08-09T03:27:22.463Z,27.70
2022-08-09T03:29:58.226Z,27.70
2022-08-09T03:32:28.076Z,27.70
2022-08-09T03:34:59.122Z,27.80
2022-08-09T03:37:55.243Z,27.80
2022-08-09T03:40:04.964Z,27.90
2022-08-09T03:42:35.843Z,27.90
2022-08-09T03:45:08.286Z,27.90
2022-08-09T03:47:42.128Z,27.90
2022-08-09T03:50:13.003Z,27.90
2022-08-09T03:52:46.163Z,27.90
2022-08-09T03:55:17.961Z,28.00
2022-08-09T03:58:03.240Z,28.00
2022-08-09T04:00:23.447Z,28.00
2022-08-09T04:02:57.332Z,28.00
2022-08-09T04:05:28.546Z,28.00
2022-08-09T04:08:00.740Z,28.10
2022-08-09T04:10:31.999Z,28.10
2022-08-09T04:13:04.785Z,28.10
2022-08-09T04:16:18.380Z,28.10
2022-08-09T04:18:09.274Z,28.20
2022-08-09T04:20:41.882Z,28.30
2022-08-09T04:23:17.048Z,28.40
2022-08-09T04:25:51.641Z,28.40
2022-08-09T04:28:33.216Z,28.50
2022-08-09T04:30:50.535Z,28.60
2022-08-09T04:33:23.669Z,28.60
2022-08-09T04:35:53.619Z,28.70
2022-08-09T04:38:34.968Z,28.80
2022-08-09T04:41:11.855Z,28.80
2022-08-09T04:43:53.637Z,28.80
2022-08-09T04:46:19.383Z,28.80
2022-08-09T04:48:57.497Z,28.70
2022-08-09T04:51:17.780Z,28.70
2022-08-09T04:53:54.160Z,28.80
2022-08-09T04:56:26.107Z,28.80
2022-08-09T04:58:55.399Z,28.90
2022-08-09T05:01:26.470Z,29.00
2022-08-09T05:03:58.773Z,29.10
2022-08-09T05:06:35.233Z,29.20
2022-08-09T05:09:02.086Z,29.30
2022-08-09T05:11:35.895Z,29.40
2022-08-09T05:14:07.425Z,29.50
2022-08-09T05:16:58.260Z,29.70
2022-08-09T05:19:12.477Z,29.70
2022-08-09T05:21:47.165Z,29.80
2022-08-09T05:24:18.565Z,29.90
2022-08-09T05:26:50.410Z,30.00
2022-08-09T05:29:22.820Z,30.10
2022-08-09T05:31:56.451Z,30.20
2022-08-09T05:34:31.030Z,30.20
2022-08-09T05:37:04.881Z,30.20
2022-08-09T05:39:43.615Z,30.20
2022-08-09T05:42:08.441Z,30.20
2022-08-09T05:44:39.965Z,30.20
2022-08-09T05:47:10.622Z,30.20
2022-08-09T05:50:30.348Z,30.20
2022-08-09T05:52:16.904Z,30.20
2022-08-09T05:54:49.214Z,30.30
2022-08-09T05:57:57.001Z,30.30
2022-08-09T06:00:02.304Z,30.20
2022-08-09T06:02:33.179Z,30.10
2022-08-09T06:05:05.639Z,30.00
2022-08-09T06:07:38.123Z,30.00
2022-08-09T06:10:15.913Z,29.90
2022-08-09T06:12:41.957Z,30.00
2022-08-09T06:15:14.105Z,30.00
2022-08-09T06:17:45.296Z,29.90
2022-08-09T06:20:18.331Z,29.90
2022-08-09T06:22:49.476Z,29.90
2022-08-09T06:25:21.281Z,29.90
2022-08-09T06:27:52.348Z,29.90
2022-08-09T06:30:23.740Z,29.80
2022-08-09T06:33:30.083Z,29.80
2022-08-09T06:35:56.251Z,29.80
2022-08-09T06:38:05.645Z,29.70
2022-08-09T06:40:31.403Z,29.60
2022-08-09T06:43:03.889Z,29.60
2022-08-09T06:46:06.833Z,29.60
2022-08-09T06:48:09.008Z,29.50
2022-08-09T06:50:40.554Z,29.50
2022-08-09T06:53:12.620Z,29.50
2022-08-09T06:55:44.173Z,29.50
2022-08-09T07:00:46.273Z,29.50
2022-08-09T07:00:58.759Z,29.50
2022-08-09T07:03:26.890Z,29.40
2022-08-09T07:06:03.866Z,29.50
2022-08-09T07:08:25.849Z,29.40
2022-08-09T07:10:58.025Z,29.40
2022-08-09T07:13:30.427Z,29.40
2022-08-09T07:16:41.088Z,29.40
2022-08-09T07:18:33.998Z,29.50
2022-08-09T07:21:04.765Z,29.40
2022-08-09T07:23:46.609Z,29.40
2022-08-09T07:26:11.104Z,29.50
2022-08-09T07:29:01.266Z,29.50
2022-08-09T07:31:15.988Z,29.50
2022-08-09T07:33:52.796Z,29.50
2022-08-09T07:36:19.456Z,29.50
2022-08-09T07:38:56.819Z,29.50
2022-08-09T07:41:22.891Z,29.50
2022-08-09T07:43:56.278Z,29.50
2022-08-09T07:46:27.859Z,29.50
2022-08-09T07:48:59.520Z,29.50
2022-08-09T07:52:05.973Z,29.50
2022-08-09T07:54:08.501Z,29.50
2022-08-09T07:56:48.834Z,29.50
2022-08-09T07:59:15.941Z,29.50
2022-08-09T08:01:53.199Z,29.50
2022-08-09T08:04:17.069Z,29.50
2022-08-09T08:06:55.935Z,29.50
2022-08-09T08:09:35.503Z,29.50
2022-08-09T08:12:09.896Z,29.60
2022-08-09T08:14:25.027Z,29.60
2022-08-09T08:17:07.451Z,29.60
2022-08-09T08:19:31.252Z,29.70
2022-08-09T08:22:01.797Z,29.70
2022-08-09T08:24:35.177Z,29.70
2022-08-09T08:27:05.144Z,29.70
2022-08-09T08:29:39.559Z,29.70
2022-08-09T08:32:12.526Z,29.70
2022-08-09T08:34:42.340Z,29.70
2022-08-09T08:37:15.661Z,29.70
2022-08-09T08:39:47.607Z,29.70
2022-08-09T08:42:19.023Z,29.80
2022-08-09T08:44:54.872Z,29.80
2022-08-09T08:47:27.600Z,29.80
2022-08-09T08:50:02.622Z,29.80
2022-08-09T08:55:06.648Z,29.80
2022-08-09T08:57:38.420Z,29.80
2022-08-09T09:00:21.011Z,29.80
2022-08-09T09:02:46.976Z,29.80
2022-08-09T09:05:22.722Z,29.80
2022-08-09T09:07:54.923Z,29.80
2022-08-09T09:10:29.001Z,29.80
2022-08-09T09:13:00.595Z,29.90
2022-08-09T09:15:32.868Z,29.80
2022-08-09T09:18:04.317Z,29.80
2022-08-09T09:20:37.831Z,29.90
2022-08-09T09:23:09.083Z,29.80
2022-08-09T09:26:05.036Z,29.80
2022-08-09T09:28:21.413Z,29.80
2022-08-09T09:30:50.892Z,29.80
2022-08-09T09:33:21.800Z,29.80
2022-08-09T09:36:02.577Z,29.80
2022-08-09T09:38:36.736Z,29.90
2022-08-09T09:41:03.557Z,30.00
2022-08-09T09:43:41.505Z,30.00
2022-08-09T09:48:41.050Z,30.10
2022-08-09T09:51:18.691Z,30.10
2022-08-09T09:54:00.856Z,30.00
2022-08-09T09:56:31.233Z,29.90
2022-08-09T09:58:53.485Z,29.80
2022-08-09T10:01:31.433Z,29.70
2022-08-09T10:04:00.121Z,29.70
2022-08-09T10:06:32.699Z,29.60
2022-08-09T10:09:11.880Z,29.60
2022-08-09T10:11:54.045Z,29.50
2022-08-09T10:14:14.236Z,29.40
2022-08-09T10:16:58.004Z,29.40
2022-08-09T10:19:19.389Z,29.30
2022-08-09T10:21:54.021Z,29.30
2022-08-09T10:24:25.533Z,29.30
2022-08-09T10:26:58.726Z,29.30
2022-08-09T10:30:12.183Z,29.20
2022-08-09T10:34:36.477Z,29.10
2022-08-09T10:37:09.583Z,28.90
2022-08-09T10:39:49.625Z,28.70
2022-08-09T10:42:15.247Z,28.60
2022-08-09T10:44:48.497Z,28.40
2022-08-09T10:48:19.221Z,28.20
2022-08-09T10:49:57.384Z,28.10
2022-08-09T10:52:32.111Z,27.90
2022-08-09T10:55:06.579Z,27.80
2022-08-09T10:57:41.759Z,27.60
2022-08-09T11:00:13.435Z,27.30
2022-08-09T11:03:15.570Z,27.10
2022-08-09T11:05:25.416Z,26.80
2022-08-09T11:07:58.463Z,26.60
2022-08-09T11:10:29.374Z,26.40
2022-08-09T11:13:03.790Z,26.30
2022-08-09T11:15:38.348Z,26.20
2022-08-09T11:18:07.802Z,26.20
2022-08-09T11:20:43.302Z,26.10
2022-08-09T11:23:14.928Z,26.10
2022-08-09T11:25:48.810Z,26.10
2022-08-09T11:28:30.519Z,26.00
2022-08-09T11:30:55.470Z,26.00
2022-08-09T11:33:29.050Z,26.00
2022-08-09T11:36:02.538Z,26.00
2022-08-09T11:38:41.321Z,26.00
2022-08-09T11:41:12.871Z,26.10
2022-08-09T11:43:53.053Z,26.10
2022-08-09T11:46:33.023Z,26.10
2022-08-09T11:49:04.889Z,26.20
2022-08-09T11:53:02.252Z,26.20
2022-08-09T11:54:13.509Z,26.20
2022-08-09T11:56:47.497Z,26.20
2022-08-09T11:59:17.754Z,26.30
2022-08-09T12:02:17.577Z,26.30
2022-08-09T12:04:32.391Z,26.30
2022-08-09T12:06:58.853Z,26.30
2022-08-09T12:09:33.921Z,26.30
2022-08-09T12:12:12.285Z,26.40
2022-08-09T12:15:08.479Z,26.50
2022-08-09T12:17:28.246Z,26.50
2022-08-09T12:19:47.840Z,26.60
2022-08-09T12:22:24.713Z,26.60
2022-08-09T12:24:59.585Z,26.60
2022-08-09T12:28:58.634Z,26.60
2022-08-09T12:30:38.827Z,26.60
2022-08-09T12:32:44.252Z,26.60
2022-08-09T12:35:21.871Z,26.60
2022-08-09T12:40:44.150Z,26.60
2022-08-09T12:44:07.067Z,26.60
2022-08-09T12:46:08.527Z,26.60
2022-08-09T12:48:59.694Z,26.60
2022-08-09T12:54:33.130Z,26.70
2022-08-09T12:57:15.899Z,26.70
2022-08-09T13:00:02.174Z,26.70
2022-08-09T13:02:27.595Z,26.70
2022-08-09T13:05:12.663Z,26.80
2022-08-09T13:07:50.797Z,26.80
2022-08-09T13:10:34.783Z,26.90
2022-08-09T13:13:09.542Z,26.90
2022-08-09T13:15:34.189Z,26.90
2022-08-09T13:18:09.526Z,26.90
2022-08-09T13:22:33.367Z,26.90
2022-08-09T13:24:44.318Z,26.80
2022-08-09T13:25:55.114Z,26.80
2022-08-09T13:28:33.987Z,26.70
2022-08-09T13:32:13.315Z,26.70
2022-08-09T13:33:52.272Z,26.70
2022-08-09T13:36:37.463Z,26.70
2022-08-09T13:38:56.175Z,26.70
2022-08-09T13:41:46.732Z,26.60
2022-08-09T13:43:43.955Z,26.60
2022-08-09T13:47:17.928Z,26.60
2022-08-09T13:48:48.564Z,26.50
2022-08-09T13:51:19.579Z,26.50
2022-08-09T13:53:51.824Z,26.40
2022-08-09T13:56:27.175Z,26.30
2022-08-09T13:59:10.707Z,26.20
2022-08-09T14:02:01.043Z,26.10
2022-08-09T14:04:14.623Z,26.00
2022-08-09T14:06:52.000Z,25.90
2022-08-09T14:09:24.297Z,25.80
2022-08-09T14:11:57.764Z,25.80
2022-08-09T14:14:33.301Z,25.70
2022-08-09T14:17:02.899Z,25.50
2022-08-09T14:19:36.766Z,25.50
2022-08-09T14:22:09.234Z,25.30
2022-08-09T14:24:53.690Z,25.30
2022-08-09T14:27:19.862Z,25.20
2022-08-09T14:30:35.527Z,25.10
2022-08-09T14:32:20.053Z,25.10
2022-08-09T14:34:55.765Z,25.10
2022-08-09T14:37:28.474Z,25.00
2022-08-09T14:39:55.916Z,25.00
2022-08-09T14:42:31.670Z,24.90
2022-08-09T14:45:01.102Z,24.90
2022-08-09T14:47:46.269Z,24.90
2022-08-09T14:50:06.053Z,24.80
2022-08-09T14:52:37.854Z,24.80
2022-08-09T14:55:09.392Z,24.80
2022-08-09T14:57:43.594Z,24.80
2022-08-09T15:00:13.190Z,24.80
2022-08-09T15:02:47.155Z,24.80
2022-08-09T15:05:17.824Z,24.80
2022-08-09T15:07:56.854Z,24.80
2022-08-09T15:10:28.459Z,24.70
2022-08-09T15:13:01.328Z,24.70
2022-08-09T15:15:34.571Z,24.60
2022-08-09T15:18:05.803Z,24.60
2022-08-09T15:22:01.486Z,24.60
2022-08-09T15:24:01.091Z,24.40
2022-08-09T15:25:42.318Z,24.40
2022-08-09T15:28:26.026Z,24.30
2022-08-09T15:30:59.765Z,24.30
2022-08-09T15:33:33.510Z,24.30
2022-08-09T15:36:01.870Z,24.30
2022-08-09T15:38:23.219Z,24.30
2022-08-09T15:40:54.020Z,24.30
2022-08-09T15:43:36.865Z,24.20
2022-08-09T15:46:28.748Z,24.20
2022-08-09T15:48:30.797Z,24.20
2022-08-09T15:51:30.095Z,24.20
2022-08-09T15:54:03.357Z,24.30
2022-08-09T15:56:23.357Z,24.30
2022-08-09T15:58:41.214Z,24.30
2022-08-09T16:01:12.461Z,24.20
2022-08-09T16:03:43.410Z,24.20
2022-08-09T16:06:35.215Z,24.20
2022-08-09T16:08:50.092Z,24.20
2022-08-09T16:11:21.451Z,24.20
2022-08-09T16:14:05.289Z,24.20
2022-08-09T16:16:29.359Z,24.30
2022-08-09T16:19:00.131Z,24.30
2022-08-09T16:21:31.837Z,24.30
2022-08-09T16:24:04.607Z,24.20
2022-08-09T16:26:36.578Z,24.10
2022-08-09T16:29:12.111Z,24.10
2022-08-09T16:32:19.712Z,24.10
2022-08-09T16:34:17.597Z,24.10
2022-08-09T16:36:51.025Z,24.00
2022-08-09T16:39:22.100Z,24.00
2022-08-09T16:42:04.075Z,24.00
2022-08-09T16:44:31.674Z,24.00
2022-08-09T16:48:43.229Z,24.00
2022-08-09T16:50:30.529Z,24.00
2022-08-09T16:52:06.728Z,24.00
2022-08-09T16:54:41.268Z,24.00
2022-08-09T16:57:11.632Z,24.00
2022-08-09T16:59:50.354Z,24.00
2022-08-09T17:02:23.304Z,24.00
2022-08-09T17:04:48.796Z,23.90
2022-08-09T17:08:43.814Z,24.00
2022-08-09T17:09:52.672Z,23.90
2022-08-09T17:12:24.672Z,23.80
2022-08-09T17:14:58.137Z,23.80
2022-08-09T17:17:30.835Z,23.70
2022-08-09T17:20:33.280Z,23.60
2022-08-09T17:22:52.246Z,23.50
2022-08-09T17:25:20.363Z,23.40
2022-08-09T17:27:58.554Z,23.40
2022-08-09T17:30:30.895Z,23.30
2022-08-09T17:33:22.028Z,23.30
2022-08-09T17:35:41.178Z,23.30
2022-08-09T17:38:29.189Z,23.30
2022-08-09T17:40:47.146Z,23.30
2022-08-09T17:43:33.790Z,23.40
2022-08-09T17:46:05.910Z,23.40
2022-08-09T17:48:22.005Z,23.40
2022-08-09T17:50:56.341Z,23.50
2022-08-09T17:53:25.377Z,23.50
2022-08-09T17:56:02.033Z,23.50
2022-08-09T17:58:28.536Z,23.50
2022-08-09T18:01:00.247Z,23.50
2022-08-09T18:03:31.745Z,23.60
2022-08-09T18:06:02.888Z,23.60
2022-08-09T18:08:33.707Z,23.60
2022-08-09T18:11:05.188Z,23.70
2022-08-09T18:13:39.663Z,23.70
2022-08-09T18:16:10.217Z,23.70
2022-08-09T18:18:49.079Z,23.70
2022-08-09T18:21:23.559Z,23.70
2022-08-09T18:24:10.847Z,23.70
2022-08-09T18:26:23.305Z,23.70
2022-08-09T18:30:39.812Z,23.70
2022-08-09T18:31:51.134Z,23.70
2022-08-09T18:34:01.315Z,23.70
2022-08-09T18:36:34.759Z,23.70
2022-08-09T18:39:06.681Z,23.80
2022-08-09T18:41:38.170Z,23.80
2022-08-09T18:44:13.698Z,23.80
2022-08-09T18:47:03.296Z,23.80
2022-08-09T18:49:19.166Z,23.80
2022-08-09T18:51:55.223Z,23.80
2022-08-09T18:54:28.799Z,23.90
2022-08-09T18:56:57.356Z,23.80
2022-08-09T18:59:29.751Z,23.90
2022-08-09T19:02:01.961Z,23.80
2022-08-09T19:04:34.972Z,23.90
2022-08-09T19:07:06.696Z,23.90
2022-08-09T19:10:13.757Z,23.90
2022-08-09T19:12:11.854Z,23.90
2022-08-09T19:14:43.681Z,23.90
2022-08-09T19:17:15.304Z,23.90
2022-08-09T19:19:47.066Z,23.90
2022-08-09T19:22:18.840Z,23.90
2022-08-09T19:25:07.508Z,23.90
2022-08-09T19:27:22.730Z,23.80
2022-08-09T19:30:21.348Z,23.90
2022-08-09T19:32:28.160Z,23.90
2022-08-09T19:35:00.846Z,23.90
2022-08-09T19:37:54.612Z,23.90
2022-08-09T19:40:06.432Z,23.90
2022-08-09T19:42:37.592Z,23.90
2022-08-09T19:45:10.309Z,23.90
2022-08-09T19:47:41.379Z,23.90
2022-08-09T19:50:51.375Z,23.90
2022-08-09T19:52:49.387Z,23.90
2022-08-09T19:55:30.554Z,24.00
2022-08-09T19:57:53.228Z,24.00
2022-08-09T20:00:23.988Z,24.00
2022-08-09T20:04:11.491Z,24.00
2022-08-09T20:05:27.883Z,23.90
2022-08-09T20:08:05.245Z,23.90
2022-08-09T20:10:34.643Z,24.00
2022-08-09T20:13:06.031Z,24.00
2022-08-09T20:16:36.762Z,24.00
2022-08-09T20:18:09.973Z,24.00
2022-08-09T20:20:41.633Z,24.10
2022-08-09T20:23:12.546Z,24.10
2022-08-09T20:25:51.352Z,24.10
2022-08-09T20:28:27.813Z,24.10
2022-08-09T20:30:49.870Z,24.10
2022-08-09T20:33:21.422Z,24.10
2022-08-09T20:35:53.094Z,24.10
2022-08-09T20:38:33.183Z,24.10
2022-08-09T20:40:58.081Z,24.10
2022-08-09T20:43:29.273Z,24.20
2022-08-09T20:46:33.912Z,24.20
2022-08-09T20:48:33.155Z,24.20
2022-08-09T20:51:04.090Z,24.20
2022-08-09T20:53:38.576Z,24.20
2022-08-09T20:56:09.203Z,24.20
2022-08-09T20:58:43.442Z,24.20
2022-08-09T21:01:34.560Z,24.20
2022-08-09T21:05:48.118Z,24.20
2022-08-09T21:06:18.697Z,24.30
2022-08-09T21:08:52.082Z,24.20
2022-08-09T21:13:59.923Z,24.30
2022-08-09T21:16:30.466Z,24.30
2022-08-09T21:20:02.447Z,24.30
2022-08-09T21:21:52.918Z,24.40
2022-08-09T21:24:05.316Z,24.40
2022-08-09T21:26:36.486Z,24.40
2022-08-09T21:29:11.895Z,24.40
2022-08-09T21:31:48.227Z,24.30
2022-08-09T21:34:21.098Z,24.30
2022-08-09T21:36:55.549Z,24.30
2022-08-09T21:39:22.067Z,24.30
2022-08-09T21:42:05.478Z,24.40
2022-08-09T21:44:33.701Z,24.40
2022-08-09T21:46:58.422Z,24.40
2022-08-09T21:49:29.530Z,24.40
2022-08-09T21:52:01.906Z,24.40
2022-08-09T21:54:32.952Z,24.40
2022-08-09T21:57:37.121Z,24.40
2022-08-09T21:59:42.792Z,24.40
2022-08-09T22:02:29.545Z,24.40
2022-08-09T22:04:57.344Z,24.40
2022-08-09T22:07:35.289Z,24.40
2022-08-09T22:09:52.662Z,24.40
2022-08-09T22:12:24.693Z,24.40
2022-08-09T22:14:55.715Z,24.40
2022-08-09T22:17:28.147Z,24.40
2022-08-09T22:20:01.044Z,24.40
2022-08-09T22:22:33.612Z,24.40
2022-08-09T22:26:07.135Z,24.40
2022-08-09T22:27:37.705Z,24.40
2022-08-09T22:30:13.454Z,24.40
2022-08-09T22:32:45.886Z,24.40
2022-08-09T22:36:01.087Z,24.50
2022-08-09T22:37:49.114Z,24.50
2022-08-09T22:40:21.462Z,24.50
2022-08-09T22:42:52.456Z,24.60
2022-08-09T22:48:12.118Z,24.60
2022-08-09T22:48:15.790Z,24.60
2022-08-09T22:50:28.262Z,24.60
2022-08-09T22:52:59.694Z,24.60
2022-08-09T22:56:00.674Z,24.60
2022-08-09T22:58:04.970Z,24.60
2022-08-09T23:00:36.293Z,24.60
2022-08-09T23:03:12.784Z,24.60
2022-08-09T23:05:40.469Z,24.60
2022-08-09T23:08:27.618Z,24.60
2022-08-09T23:10:46.275Z,24.60
2022-08-09T23:13:18.569Z,24.70
2022-08-09T23:16:02.809Z,24.60
2022-08-09T23:18:21.551Z,24.70
2022-08-09T23:20:52.402Z,24.70
2022-08-09T23:23:23.348Z,24.70
2022-08-09T23:25:54.468Z,24.60
2022-08-09T23:28:25.618Z,24.70
2022-08-09T23:30:56.802Z,24.70
2022-08-09T23:33:28.209Z,24.70
2022-08-09T23:36:05.149Z,24.70
2022-08-09T23:38:31.523Z,24.70
2022-08-09T23:41:02.459Z,24.70
2022-08-09T23:43:33.297Z,24.70
2022-08-09T23:46:04.404Z,24.70
2022-08-09T23:48:35.276Z,24.80
2022-08-09T23:51:06.342Z,24.80
2022-08-09T23:53:38.450Z,24.80
2022-08-09T23:56:09.500Z,24.80
2022-08-09T23:58:40.567Z,24.80
